sim
Sign-in with your pilot id or email,
or register
Callsign
Passwort

Schedule Details

Flight Number: OEC443
Departure: Dresden Airport (EDDC) at Time
Arrival: Munich Airport (EDDM) at Time
Route: MARE5W MAREM T106 BAGMI BAGM4A

Weather Information
Getting current METAR information for EDDC 210220Z 17005KT CAVOK 10/08 Q1018
Getting current METAR information for EDDM 210220Z VRB02KT CAVOK 09/09 Q1016 NOSIG

Schedule Frequency

Route Map